Latest Weather Observations for Forrest

IDW60801

Issued at 9:35 pm WST Friday 19 September 2014 (issued every 30 minutes, with the page automatically refreshed every 10 minutes)

About weather observations | Map of weather stations | Latest weather observations for WA | Other Formats
Station Details ID: 011052 Name: FORREST Lat: -30.85 Lon: 128.11 Height: 159.0 m
Data from the previous 72 hours. | See also: Recent months at Forrest
Date/Time
WST
Temp
°C
App
Temp
°C
Dew
Point
Rel
Hum
%
Delta-T
°C
Wind Press
QNH
hPa
Press
MSL
hPa
Rain
since 9 am
mm
Dir
 
Spd
km/h
Gust
km/h
Spd
kts
Gust
kts
19/09:30pm 13.6 11.0 6.0 60 3.6 SE 9 11 5 6 1021.5 - 0.0
19/09:00pm 13.7 10.6 5.6 58 3.8 SE 11 13 6 7 1021.5 1021.4 0.0
19/08:30pm 14.8 11.8 6.1 56 4.2 SE 11 15 6 8 1021.3 - 0.0
19/08:00pm 15.4 12.4 5.9 53 4.6 SE 11 15 6 8 1021.7 - 0.0
19/07:30pm 16.5 12.4 6.1 50 5.1 SE 17 20 9 11 1021.3 - 0.0
19/07:00pm 17.4 12.0 6.3 48 5.5 SE 24 32 13 17 1020.7 - 0.0
19/06:30pm 18.5 12.3 6.0 44 6.2 SE 28 37 15 20 1020.0 - 0.0
19/06:00pm 19.8 13.7 6.5 42 6.7 SE 28 37 15 20 1019.0 1018.9 0.0
19/05:30pm 21.9 14.9 6.2 36 8.0 SE 32 44 17 24 1018.1 - 0.0
19/05:00pm 24.5 17.8 5.8 30 9.6 SE 30 46 16 25 1017.4 - 0.0
19/04:30pm 26.7 22.4 5.1 25 11.1 S 17 26 9 14 1017.1 - 0.0
19/04:00pm 27.1 22.5 5.4 25 11.3 SSW 19 26 10 14 1016.8 - 0.0
19/03:30pm 27.4 22.6 5.6 25 11.4 S 20 28 11 15 1016.8 - 0.0
19/03:00pm 27.5 24.2 6.3 26 11.2 SW 13 20 7 11 1016.8 1016.8 0.0
19/02:30pm 27.2 23.8 6.0 26 11.1 SSW 13 20 7 11 1016.7 - 0.0
19/02:00pm 26.6 22.7 5.5 26 10.9 SSW 15 22 8 12 1016.9 - 0.0
19/01:30pm 27.0 24.1 6.4 27 10.9 SSE 11 20 6 11 1017.2 - 0.0
19/01:00pm 26.5 25.2 6.0 27 10.7 S 2 7 1 4 1017.2 - 0.0
19/12:30pm 25.5 22.4 5.7 28 10.2 NNE 11 17 6 9 1017.4 - 0.0
19/12:00pm 24.8 21.4 6.1 30 9.7 ENE 13 22 7 12 1017.9 1017.9 0.0
19/11:30am 24.1 20.3 5.9 31 9.3 E 15 24 8 13 1018.4 - 0.0
19/11:00am 23.5 19.5 6.7 34 8.7 ENE 17 26 9 14 1018.8 - 0.0
19/10:30am 22.4 18.4 6.6 36 8.1 ENE 17 22 9 12 1019.2 - 0.0
19/10:00am 21.6 17.1 7.1 39 7.5 ENE 20 32 11 17 1019.6 - 0.0
19/09:30am 20.2 14.9 6.9 42 6.8 NE 24 30 13 16 1019.7 - 0.0
19/09:00am 19.0 13.7 6.8 45 6.2 ENE 24 30 13 16 1020.0 1019.9 0.2
19/08:30am 17.5 12.2 6.7 49 5.4 ENE 24 30 13 16 1020.2 - 0.2
19/08:00am 16.0 10.3 6.7 54 4.6 ENE 26 32 14 17 1020.4 - 0.2
19/07:30am 13.7 8.5 7.2 65 3.2 E 24 28 13 15 1020.4 - 0.2
19/07:00am 11.2 6.9 6.9 75 2.1 E 19 24 10 13 1020.3 - 0.2
19/06:30am 9.5 4.9 6.6 82 1.4 E 20 24 11 13 1020.3 - 0.2
19/06:00am 8.6 4.5 6.4 86 1.0 E 17 20 9 11 1020.1 1020.0 0.2
19/05:30am 7.6 3.8 5.9 89 0.8 E 15 19 8 10 1019.8 - 0.2
19/05:00am 7.3 3.5 5.9 91 0.6 E 15 17 8 9 1019.6 - 0.2
19/04:30am 7.3 3.9 5.8 90 0.7 E 13 15 7 8 1019.6 - 0.2
19/04:00am 7.4 4.0 5.7 89 0.8 E 13 13 7 7 1019.6 - 0.2
19/03:30am 8.0 4.6 6.1 88 0.9 E 13 15 7 8 1019.4 - 0.2
19/03:00am 8.4 4.7 6.5 88 0.9 E 15 17 8 9 1019.2 1019.1 0.2
19/02:30am 8.6 5.0 6.6 87 0.9 E 15 15 8 8 1019.0 - 0.2
19/02:00am 8.9 5.3 6.9 87 0.9 E 15 17 8 9 1019.1 - 0.2
19/01:30am 9.0 5.5 7.0 87 0.9 E 15 17 8 9 1019.3 - 0.2
19/01:00am 9.2 5.7 7.0 86 1.0 E 15 17 8 9 1019.6 - 0.2
19/12:30am 9.6 6.5 7.2 85 1.1 E 13 15 7 8 1019.9 - 0.2
19/12:00am 10.2 7.1 7.4 83 1.3 E 13 15 7 8 1020.2 1020.1 0.2
 
Date/Time
WST
Temp
°C
App
Temp
°C
Dew
Point
Rel
Hum
%
Delta-T
°C
Wind Press
QNH
hPa
Press
MSL
hPa
Rain
since 9 am
mm
Dir
 
Spd
km/h
Gust
km/h
Spd
kts
Gust
kts
18/11:30pm 10.7 6.9 7.6 81 1.5 E 17 20 9 11 1020.3 - 0.2
18/11:00pm 11.0 7.2 7.5 79 1.7 E 17 22 9 12 1020.7 - 0.2
18/10:30pm 11.3 7.5 7.4 77 1.9 E 17 20 9 11 1020.7 - 0.2
18/10:00pm 11.7 7.5 7.4 75 2.1 E 19 24 10 13 1020.6 - 0.2
18/09:30pm 12.2 7.4 7.5 73 2.3 E 22 28 12 15 1020.8 - 0.2
18/09:00pm 12.8 8.0 7.3 69 2.7 E 22 28 12 15 1020.9 1020.8 0.2
18/08:30pm 13.5 8.3 7.1 65 3.1 E 24 33 13 18 1020.8 - 0.2
18/08:00pm 13.9 9.3 6.7 62 3.5 SE 20 30 11 16 1020.7 - 0.2
18/07:30pm 14.2 10.2 6.6 60 3.7 E 17 19 9 10 1020.4 - 0.2
18/07:00pm 14.9 10.9 6.7 58 4.0 E 17 19 9 10 1020.0 - 0.2
18/06:30pm 15.3 11.7 6.8 57 4.2 E 15 17 8 9 1019.7 - 0.2
18/06:00pm 16.6 12.9 6.1 50 5.1 E 15 17 8 9 1019.7 1019.6 0.2
18/05:30pm 18.2 13.6 5.4 43 6.3 E 19 22 10 12 1019.6 - 0.2
18/05:00pm 19.4 13.7 5.1 39 7.0 E 24 30 13 16 1019.4 - 0.2
18/04:30pm 20.0 13.8 4.5 36 7.5 ENE 26 32 14 17 1019.3 - 0.2
18/04:00pm 20.2 14.4 4.3 35 7.7 ENE 24 33 13 18 1019.4 - 0.2
18/03:30pm 20.5 14.7 4.5 35 7.8 ENE 24 30 13 16 1019.4 - 0.2
18/03:00pm 20.3 14.0 3.9 34 7.9 ENE 26 33 14 18 1019.5 1019.4 0.2
18/02:30pm 21.2 14.2 3.9 32 8.4 ENE 30 35 16 19 1019.7 - 0.2
18/02:00pm 20.8 14.4 5.2 36 7.7 NE 28 35 15 19 1019.9 - 0.2
18/01:30pm 20.7 14.4 5.5 37 7.6 ENE 28 35 15 19 1020.3 - 0.2
18/01:00pm 19.2 13.0 6.0 42 6.6 NE 28 39 15 21 1020.1 - 0.2
18/12:30pm 19.8 13.4 6.9 43 6.6 ENE 30 39 16 21 1020.6 - 0.2
18/12:00pm 18.7 13.5 7.2 47 5.8 ENE 24 39 13 21 1021.5 1021.4 0.2
18/11:30am 18.4 13.8 8.1 51 5.3 E 22 30 12 16 1022.5 - 0.2
18/11:00am 17.4 11.6 8.0 54 4.8 ENE 28 33 15 18 1022.7 - 0.2
18/10:30am 16.2 11.2 9.4 64 3.6 E 26 32 14 17 1023.1 - 0.2
18/10:00am 14.7 11.3 10.7 77 2.1 E 19 32 10 17 1023.6 - 0.2
18/09:30am 12.6 8.9 10.1 85 1.3 NE 20 30 11 16 1023.8 - 0.0
18/09:00am 11.3 7.4 9.6 89 0.9 NE 20 28 11 15 1024.6 1024.6 4.6
18/08:30am 10.8 8.7 9.6 92 0.6 NNE 11 15 6 8 1025.9 - 4.6
18/08:00am 10.8 9.3 9.1 89 0.9 W 7 11 4 6 1027.6 - 3.4
18/07:30am 11.1 8.6 8.1 82 1.5 SE 11 17 6 9 1026.2 - 0.8
18/07:28am 11.1 8.6 8.3 83 1.4 SE 11 17 6 9 1026.0 - 0.8
18/07:00am 11.3 7.1 8.2 81 1.5 E 20 26 11 14 1024.0 - 0.2
18/06:30am 11.3 6.7 8.0 80 1.6 ESE 22 28 12 15 1023.3 - 0.0
18/06:00am 11.6 8.9 7.5 76 2.0 E 11 17 6 9 1024.6 1024.6 0.0
18/05:30am 11.7 9.0 7.2 74 2.2 SE 11 17 6 9 1024.9 - 0.0
18/05:00am 11.8 8.2 6.9 72 2.4 S 15 20 8 11 1024.7 - 0.0
18/04:30am 11.6 8.0 6.9 73 2.3 S 15 19 8 10 1023.8 - 0.0
18/04:00am 11.4 6.8 6.7 73 2.2 ESE 20 26 11 14 1021.9 - 0.0
18/03:30am 11.7 7.3 7.2 74 2.2 E 20 26 11 14 1021.7 - 0.0
18/03:00am 12.2 7.0 7.1 71 2.5 ENE 24 30 13 16 1021.5 1021.4 0.0
18/02:30am 12.2 7.4 7.5 73 2.3 ENE 22 30 12 16 1021.1 - 0.0
18/02:00am 12.2 6.8 7.9 75 2.1 E 26 33 14 18 1021.1 - 0.0
18/01:30am 12.2 7.5 7.7 74 2.2 E 22 28 12 15 1022.2 - 0.0
18/01:00am 12.1 7.9 7.6 74 2.2 E 19 24 10 13 1022.6 - 0.0
18/12:30am 12.0 6.5 7.5 74 2.2 E 26 32 14 17 1021.9 - 0.0
18/12:00am 11.9 7.4 7.0 72 2.4 E 20 28 11 15 1022.5 1022.5 0.0
 
Date/Time
WST
Temp
°C
App
Temp
°C
Dew
Point
Rel
Hum
%
Delta-T
°C
Wind Press
QNH
hPa
Press
MSL
hPa
Rain
since 9 am
mm
Dir
 
Spd
km/h
Gust
km/h
Spd
kts
Gust
kts
17/11:30pm 12.0 7.0 6.5 69 2.6 E 22 28 12 15 1022.5 - 0.0
17/11:00pm 11.9 6.8 5.8 66 2.9 E 22 28 12 15 1022.6 - 0.0
17/10:30pm 12.1 6.5 5.3 63 3.2 E 24 32 13 17 1022.2 - 0.0
17/10:00pm 12.2 6.9 4.9 61 3.4 ESE 22 28 12 15 1022.7 - 0.0
17/09:30pm 12.2 7.4 4.9 61 3.4 ESE 19 24 10 13 1023.2 - 0.0
17/09:00pm 13.2 8.6 5.6 60 3.6 E 19 24 10 13 1023.9 1023.9 0.0
17/08:30pm 13.8 9.0 5.4 57 4.0 ESE 20 30 11 16 1023.3 - 0.0
17/08:00pm 14.8 9.2 5.6 54 4.4 ESE 24 33 13 18 1023.1 - 0.0
17/07:30pm 15.2 9.4 4.3 48 5.1 ESE 24 30 13 16 1022.8 - 0.0
17/07:00pm 15.3 9.5 -4.6 25 7.7 ESE 17 20 9 11 1022.5 - 0.0
17/06:30pm 16.1 10.3 -4.4 24 8.0 ESE 17 20 9 11 1022.1 - 0.0
17/06:00pm 16.6 11.1 -5.2 22 8.4 ESE 15 17 8 9 1021.8 1021.7 0.0
17/05:30pm 18.4 13.3 -4.9 20 9.2 ESE 13 15 7 8 1021.7 - 0.0
17/05:00pm 20.6 15.2 -4.5 18 10.3 E 15 19 8 10 1021.7 - 0.0
17/04:30pm 21.5 15.7 -4.5 17 10.7 E 17 20 9 11 1021.5 - 0.0
17/04:00pm 21.8 16.0 -5.1 16 11.0 ESE 17 22 9 12 1021.1 - 0.0
17/03:30pm 22.0 15.8 -4.9 16 11.1 ESE 19 28 10 15 1020.7 - 0.0
17/03:00pm 22.2 16.0 -4.8 16 11.1 E 19 28 10 15 1020.7 1020.6 0.0
17/02:30pm 22.4 16.3 -3.8 17 11.1 ESE 19 28 10 15 1020.9 - 0.0
17/02:00pm 21.8 15.6 -2.8 19 10.5 SE 20 32 11 17 1020.9 - 0.0
17/01:30pm 21.9 17.6 -1.4 21 10.3 ESE 11 22 6 12 1021.2 - 0.0
17/01:00pm 21.0 16.1 -0.3 24 9.5 ESE 15 26 8 14 1021.6 - 0.0
17/12:30pm 20.8 15.0 0.1 25 9.3 ESE 20 35 11 19 1022.1 - 0.0
17/12:00pm 20.8 15.3 0.6 26 9.1 E 19 30 10 16 1022.3 1022.3 0.0
17/11:30am 20.3 14.9 1.2 28 8.7 ENE 19 32 10 17 1022.6 - 0.0
17/11:00am 19.5 13.2 1.5 30 8.2 E 24 30 13 16 1022.8 - 0.0
17/10:30am 18.7 12.1 2.1 33 7.6 ENE 26 35 14 19 1023.4 - 0.0
17/10:00am 17.7 11.2 2.5 36 7.0 ENE 26 33 14 18 1023.6 - 0.0
17/09:30am 17.2 10.5 3.5 40 6.4 NE 28 39 15 21 1023.8 - 0.0
17/09:00am 15.8 9.1 3.9 45 5.5 ENE 28 39 15 21 1024.2 1024.2 -
17/08:30am 14.5 7.5 4.2 50 4.8 ENE 30 39 16 21 1024.2 - -
17/08:00am - - - - - ENE 32 39 17 21 - - -
17/07:30am 11.8 5.4 5.0 63 3.1 ENE 28 35 15 19 1024.6 - -
17/07:00am 10.1 5.3 4.9 70 2.4 ENE 19 24 10 13 1024.4 - -
17/06:30am 8.0 4.6 4.2 77 1.7 ENE 11 15 6 8 1024.1 - -
17/06:00am 5.7 2.4 2.7 81 1.2 NE 9 9 5 5 1023.7 1023.7 -
17/05:30am 4.7 0.6 2.1 83 1.0 ENE 13 15 7 8 1023.3 - -
17/05:00am 5.3 1.6 2.5 82 1.1 ENE 11 13 6 7 1022.9 - -
17/04:30am 5.9 2.7 2.9 81 1.3 ENE 9 11 5 6 1022.6 - -
17/04:00am 6.3 2.3 3.1 80 1.3 ENE 13 15 7 8 1022.1 - -
17/03:30am 7.0 2.7 3.4 78 1.5 E 15 17 8 9 1021.9 - -
17/03:00am 7.3 2.7 3.9 79 1.5 E 17 20 9 11 1021.6 1021.5 -
17/02:30am 7.3 3.1 3.9 79 1.5 E 15 17 8 9 1021.8 - -
17/02:00am 7.2 2.7 4.0 80 1.4 E 17 19 9 10 1021.8 - -
17/01:30am 6.5 3.0 3.3 80 1.4 ENE 11 13 6 7 1022.2 - -
17/01:00am 6.9 3.7 3.3 78 1.5 ENE 9 13 5 7 1022.1 - -
17/12:30am 7.8 3.6 4.0 77 1.7 E 15 17 8 9 1022.4 - -
17/12:00am 7.7 4.3 3.9 77 1.6 ENE 11 13 6 7 1022.7 1022.7 -
 
Date/Time
WST
Temp
°C
App
Temp
°C
Dew
Point
Rel
Hum
%
Delta-T
°C
Wind Press
QNH
hPa
Press
MSL
hPa
Rain
since 9 am
mm
Dir
 
Spd
km/h
Gust
km/h
Spd
kts
Gust
kts
16/11:30pm 8.3 4.5 4.1 75 1.8 E 13 13 7 7 1022.8 - -
16/11:00pm 9.0 5.3 4.6 74 2.0 E 13 17 7 9 1022.9 - -
16/10:30pm 9.3 6.0 4.5 72 2.1 E 11 15 6 8 1023.3 - -
16/10:00pm 10.1 6.9 5.1 71 2.3 ESE 11 15 6 8 1023.5 - -

Other Formats:

Comma delimited format used in spreadsheet applications
http://www.bom.gov.au/fwo/IDW60801/IDW60801.95646.axf

JavaScript Object Notation format (JSON) in row-major order
http://www.bom.gov.au/fwo/IDW60801/IDW60801.95646.json